sensor_id;sensor_type;location;lat;lon;timestamp;P1;durP1;ratioP1;P2;durP2;ratioP2
64674;SDS011;51090;51.512;11.332;2022-12-18T00:01:14;18.88;;;6.72;;
64674;SDS011;51090;51.512;11.332;2022-12-18T00:03:59;15.13;;;6.50;;
64674;SDS011;51090;51.512;11.332;2022-12-18T00:06:27;18.00;;;6.53;;
64674;SDS011;51090;51.512;11.332;2022-12-18T00:08:55;17.77;;;7.65;;
64674;SDS011;51090;51.512;11.332;2022-12-18T00:11:23;17.77;;;8.18;;
64674;SDS011;51090;51.512;11.332;2022-12-18T00:13:53;15.90;;;6.78;;
64674;SDS011;51090;51.512;11.332;2022-12-18T00:16:22;18.10;;;6.38;;
64674;SDS011;51090;51.512;11.332;2022-12-18T00:18:50;14.77;;;6.13;;
64674;SDS011;51090;51.512;11.332;2022-12-18T00:21:19;16.40;;;6.72;;
64674;SDS011;51090;51.512;11.332;2022-12-18T00:23:46;16.20;;;7.07;;
64674;SDS011;51090;51.512;11.332;2022-12-18T00:26:18;13.23;;;6.47;;
64674;SDS011;51090;51.512;11.332;2022-12-18T00:28:47;20.77;;;7.32;;
64674;SDS011;51090;51.512;11.332;2022-12-18T00:31:14;17.88;;;7.43;;
64674;SDS011;51090;51.512;11.332;2022-12-18T00:33:44;12.45;;;6.82;;
64674;SDS011;51090;51.512;11.332;2022-12-18T00:36:11;18.17;;;7.53;;
64674;SDS011;51090;51.512;11.332;2022-12-18T00:38:40;18.42;;;6.50;;
64674;SDS011;51090;51.512;11.332;2022-12-18T00:41:07;21.80;;;8.07;;
64674;SDS011;51090;51.512;11.332;2022-12-18T00:43:35;19.17;;;7.18;;
64674;SDS011;51090;51.512;11.332;2022-12-18T00:46:02;18.67;;;7.50;;
64674;SDS011;51090;51.512;11.332;2022-12-18T00:48:28;16.42;;;7.15;;
64674;SDS011;51090;51.512;11.332;2022-12-18T00:50:54;17.15;;;6.60;;
64674;SDS011;51090;51.512;11.332;2022-12-18T00:53:19;16.63;;;6.20;;
64674;SDS011;51090;51.512;11.332;2022-12-18T00:55:46;21.75;;;7.78;;
64674;SDS011;51090;51.512;11.332;2022-12-18T00:58:12;19.33;;;8.13;;
64674;SDS011;51090;51.512;11.332;2022-12-18T01:00:40;17.17;;;7.10;;
64674;SDS011;51090;51.512;11.332;2022-12-18T01:03:07;16.17;;;6.93;;
64674;SDS011;51090;51.512;11.332;2022-12-18T01:05:38;19.15;;;8.55;;
64674;SDS011;51090;51.512;11.332;2022-12-18T01:08:06;23.60;;;7.87;;
64674;SDS011;51090;51.512;11.332;2022-12-18T01:10:31;20.13;;;9.25;;
64674;SDS011;51090;51.512;11.332;2022-12-18T01:12:57;15.82;;;7.45;;
64674;SDS011;51090;51.512;11.332;2022-12-18T01:15:23;21.95;;;8.13;;
64674;SDS011;51090;51.512;11.332;2022-12-18T01:17:49;20.77;;;8.77;;
64674;SDS011;51090;51.512;11.332;2022-12-18T01:20:18;21.02;;;8.43;;
64674;SDS011;51090;51.512;11.332;2022-12-18T01:22:43;18.75;;;7.40;;
64674;SDS011;51090;51.512;11.332;2022-12-18T01:25:09;19.75;;;7.82;;
64674;SDS011;51090;51.512;11.332;2022-12-18T01:27:35;17.77;;;7.70;;
64674;SDS011;51090;51.512;11.332;2022-12-18T01:30:01;16.92;;;6.53;;
64674;SDS011;51090;51.512;11.332;2022-12-18T01:32:29;17.40;;;7.63;;
64674;SDS011;51090;51.512;11.332;2022-12-18T01:34:55;20.73;;;7.80;;
64674;SDS011;51090;51.512;11.332;2022-12-18T01:37:21;16.67;;;6.55;;
64674;SDS011;51090;51.512;11.332;2022-12-18T01:39:47;15.43;;;7.28;;
64674;SDS011;51090;51.512;11.332;2022-12-18T01:42:13;17.77;;;6.57;;
64674;SDS011;51090;51.512;11.332;2022-12-18T01:52:48;21.35;;;6.85;;
64674;SDS011;51090;51.512;11.332;2022-12-18T01:55:19;21.52;;;6.78;;
64674;SDS011;51090;51.512;11.332;2022-12-18T01:57:51;17.83;;;7.75;;
64674;SDS011;51090;51.512;11.332;2022-12-18T02:00:20;15.45;;;7.40;;
64674;SDS011;51090;51.512;11.332;2022-12-18T02:02:47;20.63;;;8.23;;
64674;SDS011;51090;51.512;11.332;2022-12-18T02:05:14;21.92;;;7.88;;
64674;SDS011;51090;51.512;11.332;2022-12-18T02:07:58;18.65;;;7.18;;
64674;SDS011;51090;51.512;11.332;2022-12-18T02:10:27;26.90;;;8.77;;
64674;SDS011;51090;51.512;11.332;2022-12-18T02:15:40;22.55;;;7.95;;
64674;SDS011;51090;51.512;11.332;2022-12-18T02:18:19;23.23;;;8.55;;
64674;SDS011;51090;51.512;11.332;2022-12-18T02:26:46;17.88;;;7.68;;
64674;SDS011;51090;51.512;11.332;2022-12-18T02:29:29;19.30;;;7.90;;
64674;SDS011;51090;51.512;11.332;2022-12-18T02:32:10;19.40;;;7.88;;
64674;SDS011;51090;51.512;11.332;2022-12-18T02:34:42;23.80;;;8.50;;
64674;SDS011;51090;51.512;11.332;2022-12-18T02:37:10;16.45;;;6.57;;
64674;SDS011;51090;51.512;11.332;2022-12-18T02:39:41;18.92;;;8.40;;
64674;SDS011;51090;51.512;11.332;2022-12-18T02:42:09;21.08;;;7.68;;
64674;SDS011;51090;51.512;11.332;2022-12-18T02:44:46;26.92;;;9.32;;
64674;SDS011;51090;51.512;11.332;2022-12-18T02:47:15;23.00;;;8.57;;
64674;SDS011;51090;51.512;11.332;2022-12-18T02:58:40;24.92;;;8.90;;
64674;SDS011;51090;51.512;11.332;2022-12-18T03:04:56;24.88;;;8.57;;
64674;SDS011;51090;51.512;11.332;2022-12-18T03:08:07;27.95;;;8.73;;
64674;SDS011;51090;51.512;11.332;2022-12-18T03:10:44;23.80;;;8.35;;
64674;SDS011;51090;51.512;11.332;2022-12-18T03:13:56;32.13;;;10.82;;
64674;SDS011;51090;51.512;11.332;2022-12-18T03:16:22;24.05;;;8.75;;
64674;SDS011;51090;51.512;11.332;2022-12-18T03:19:01;20.08;;;8.77;;
64674;SDS011;51090;51.512;11.332;2022-12-18T03:21:52;27.67;;;8.23;;
64674;SDS011;51090;51.512;11.332;2022-12-18T03:24:21;20.80;;;7.47;;
64674;SDS011;51090;51.512;11.332;2022-12-18T03:26:50;20.73;;;7.97;;
64674;SDS011;51090;51.512;11.332;2022-12-18T03:31:57;21.15;;;7.90;;
64674;SDS011;51090;51.512;11.332;2022-12-18T03:34:35;21.15;;;7.68;;
64674;SDS011;51090;51.512;11.332;2022-12-18T03:37:05;19.20;;;7.75;;
64674;SDS011;51090;51.512;11.332;2022-12-18T03:39:32;23.52;;;8.05;;
64674;SDS011;51090;51.512;11.332;2022-12-18T03:42:07;23.00;;;8.20;;
64674;SDS011;51090;51.512;11.332;2022-12-18T03:50:41;23.58;;;9.25;;
64674;SDS011;51090;51.512;11.332;2022-12-18T03:53:18;26.17;;;9.65;;
64674;SDS011;51090;51.512;11.332;2022-12-18T03:56:01;22.08;;;8.77;;
64674;SDS011;51090;51.512;11.332;2022-12-18T03:58:29;22.58;;;9.27;;
64674;SDS011;51090;51.512;11.332;2022-12-18T04:00:58;25.52;;;8.88;;
64674;SDS011;51090;51.512;11.332;2022-12-18T04:03:28;25.55;;;9.07;;
64674;SDS011;51090;51.512;11.332;2022-12-18T04:05:56;24.88;;;8.73;;
64674;SDS011;51090;51.512;11.332;2022-12-18T04:08:25;27.73;;;9.75;;
64674;SDS011;51090;51.512;11.332;2022-12-18T04:10:51;21.25;;;8.90;;
64674;SDS011;51090;51.512;11.332;2022-12-18T04:13:24;26.08;;;9.20;;
64674;SDS011;51090;51.512;11.332;2022-12-18T04:15:54;32.58;;;10.88;;
64674;SDS011;51090;51.512;11.332;2022-12-18T04:18:20;30.77;;;9.65;;
64674;SDS011;51090;51.512;11.332;2022-12-18T04:20:46;24.95;;;9.52;;
64674;SDS011;51090;51.512;11.332;2022-12-18T04:23:11;32.00;;;11.07;;
64674;SDS011;51090;51.512;11.332;2022-12-18T04:25:38;30.52;;;10.10;;
64674;SDS011;51090;51.512;11.332;2022-12-18T04:28:04;29.15;;;11.13;;
64674;SDS011;51090;51.512;11.332;2022-12-18T04:30:30;34.00;;;11.05;;
64674;SDS011;51090;51.512;11.332;2022-12-18T04:32:56;25.35;;;10.07;;
64674;SDS011;51090;51.512;11.332;2022-12-18T04:35:21;26.10;;;9.07;;
64674;SDS011;51090;51.512;11.332;2022-12-18T04:37:47;27.80;;;11.00;;
64674;SDS011;51090;51.512;11.332;2022-12-18T04:40:13;28.63;;;10.50;;
64674;SDS011;51090;51.512;11.332;2022-12-18T04:42:39;24.58;;;8.65;;
64674;SDS011;51090;51.512;11.332;2022-12-18T04:45:05;27.58;;;12.40;;
64674;SDS011;51090;51.512;11.332;2022-12-18T04:47:32;24.83;;;9.88;;
64674;SDS011;51090;51.512;11.332;2022-12-18T04:49:58;22.52;;;9.50;;
64674;SDS011;51090;51.512;11.332;2022-12-18T04:52:24;22.58;;;9.07;;
64674;SDS011;51090;51.512;11.332;2022-12-18T04:54:49;25.38;;;9.45;;
64674;SDS011;51090;51.512;11.332;2022-12-18T04:57:15;22.80;;;8.65;;
64674;SDS011;51090;51.512;11.332;2022-12-18T04:59:42;24.08;;;8.90;;
64674;SDS011;51090;51.512;11.332;2022-12-18T05:02:09;24.65;;;8.90;;
64674;SDS011;51090;51.512;11.332;2022-12-18T05:04:35;19.35;;;7.47;;
64674;SDS011;51090;51.512;11.332;2022-12-18T05:07:00;22.92;;;9.40;;
64674;SDS011;51090;51.512;11.332;2022-12-18T05:09:26;29.60;;;11.02;;
64674;SDS011;51090;51.512;11.332;2022-12-18T05:11:52;23.92;;;9.13;;
64674;SDS011;51090;51.512;11.332;2022-12-18T05:14:18;21.42;;;9.73;;
64674;SDS011;51090;51.512;11.332;2022-12-18T05:16:44;26.35;;;9.32;;
64674;SDS011;51090;51.512;11.332;2022-12-18T05:19:10;24.40;;;9.18;;
64674;SDS011;51090;51.512;11.332;2022-12-18T05:21:36;19.60;;;8.50;;
64674;SDS011;51090;51.512;11.332;2022-12-18T05:24:01;22.05;;;9.48;;
64674;SDS011;51090;51.512;11.332;2022-12-18T05:26:27;24.88;;;10.00;;
64674;SDS011;51090;51.512;11.332;2022-12-18T05:28:53;28.40;;;10.27;;
64674;SDS011;51090;51.512;11.332;2022-12-18T05:31:19;24.15;;;8.82;;
64674;SDS011;51090;51.512;11.332;2022-12-18T05:33:45;22.92;;;9.13;;
64674;SDS011;51090;51.512;11.332;2022-12-18T05:36:14;25.67;;;8.85;;
64674;SDS011;51090;51.512;11.332;2022-12-18T05:38:40;27.02;;;9.73;;
64674;SDS011;51090;51.512;11.332;2022-12-18T05:41:06;23.67;;;7.85;;
64674;SDS011;51090;51.512;11.332;2022-12-18T05:43:34;23.40;;;9.10;;
64674;SDS011;51090;51.512;11.332;2022-12-18T05:46:05;23.55;;;9.45;;
64674;SDS011;51090;51.512;11.332;2022-12-18T05:48:33;20.75;;;9.52;;
64674;SDS011;51090;51.512;11.332;2022-12-18T05:51:06;27.98;;;10.73;;
64674;SDS011;51090;51.512;11.332;2022-12-18T05:53:41;30.53;;;9.97;;
64674;SDS011;51090;51.512;11.332;2022-12-18T05:56:09;25.98;;;9.10;;
64674;SDS011;51090;51.512;11.332;2022-12-18T05:58:39;29.90;;;9.43;;
64674;SDS011;51090;51.512;11.332;2022-12-18T06:01:09;22.15;;;8.20;;
64674;SDS011;51090;51.512;11.332;2022-12-18T06:03:45;21.77;;;8.23;;
64674;SDS011;51090;51.512;11.332;2022-12-18T06:06:21;24.95;;;9.73;;
64674;SDS011;51090;51.512;11.332;2022-12-18T06:08:51;27.98;;;9.63;;
64674;SDS011;51090;51.512;11.332;2022-12-18T06:11:19;26.15;;;9.55;;
64674;SDS011;51090;51.512;11.332;2022-12-18T06:13:54;27.75;;;10.27;;
64674;SDS011;51090;51.512;11.332;2022-12-18T06:16:21;21.58;;;9.45;;
64674;SDS011;51090;51.512;11.332;2022-12-18T06:18:46;30.95;;;10.48;;
64674;SDS011;51090;51.512;11.332;2022-12-18T06:21:12;20.77;;;9.60;;
64674;SDS011;51090;51.512;11.332;2022-12-18T06:23:38;25.35;;;9.32;;
64674;SDS011;51090;51.512;11.332;2022-12-18T06:26:08;25.55;;;10.43;;
64674;SDS011;51090;51.512;11.332;2022-12-18T06:28:36;24.30;;;10.07;;
64674;SDS011;51090;51.512;11.332;2022-12-18T06:31:03;25.35;;;10.05;;
64674;SDS011;51090;51.512;11.332;2022-12-18T06:33:29;26.48;;;11.00;;
64674;SDS011;51090;51.512;11.332;2022-12-18T06:36:28;26.40;;;10.45;;
64674;SDS011;51090;51.512;11.332;2022-12-18T06:38:47;22.40;;;9.25;;
64674;SDS011;51090;51.512;11.332;2022-12-18T06:41:14;21.50;;;8.07;;
64674;SDS011;51090;51.512;11.332;2022-12-18T06:43:43;26.42;;;9.30;;
64674;SDS011;51090;51.512;11.332;2022-12-18T06:46:09;23.67;;;10.32;;
64674;SDS011;51090;51.512;11.332;2022-12-18T06:48:35;22.20;;;9.23;;
64674;SDS011;51090;51.512;11.332;2022-12-18T06:51:01;22.60;;;9.23;;
64674;SDS011;51090;51.512;11.332;2022-12-18T06:53:28;21.63;;;9.70;;
64674;SDS011;51090;51.512;11.332;2022-12-18T06:56:01;23.65;;;10.10;;
64674;SDS011;51090;51.512;11.332;2022-12-18T06:58:28;20.40;;;8.15;;
64674;SDS011;51090;51.512;11.332;2022-12-18T07:00:58;26.85;;;9.18;;
64674;SDS011;51090;51.512;11.332;2022-12-18T07:03:26;19.58;;;7.18;;
64674;SDS011;51090;51.512;11.332;2022-12-18T07:05:52;22.38;;;9.93;;
64674;SDS011;51090;51.512;11.332;2022-12-18T07:08:17;19.80;;;9.43;;
64674;SDS011;51090;51.512;11.332;2022-12-18T07:10:43;21.10;;;8.80;;
64674;SDS011;51090;51.512;11.332;2022-12-18T07:13:10;22.25;;;9.77;;
64674;SDS011;51090;51.512;11.332;2022-12-18T07:15:35;22.17;;;10.10;;
64674;SDS011;51090;51.512;11.332;2022-12-18T07:18:01;23.40;;;8.88;;
64674;SDS011;51090;51.512;11.332;2022-12-18T07:20:27;23.38;;;8.73;;
64674;SDS011;51090;51.512;11.332;2022-12-18T07:22:53;16.75;;;7.93;;
64674;SDS011;51090;51.512;11.332;2022-12-18T07:25:19;22.65;;;9.73;;
64674;SDS011;51090;51.512;11.332;2022-12-18T07:27:45;23.38;;;9.48;;
64674;SDS011;51090;51.512;11.332;2022-12-18T07:30:10;22.13;;;9.02;;
64674;SDS011;51090;51.512;11.332;2022-12-18T07:32:36;22.17;;;8.57;;
64674;SDS011;51090;51.512;11.332;2022-12-18T07:35:02;27.20;;;11.73;;
64674;SDS011;51090;51.512;11.332;2022-12-18T07:37:28;23.05;;;9.63;;
64674;SDS011;51090;51.512;11.332;2022-12-18T07:39:54;27.90;;;12.20;;
64674;SDS011;51090;51.512;11.332;2022-12-18T07:42:20;29.63;;;11.38;;
64674;SDS011;51090;51.512;11.332;2022-12-18T07:44:58;25.63;;;10.05;;
64674;SDS011;51090;51.512;11.332;2022-12-18T07:47:25;26.58;;;10.50;;
64674;SDS011;51090;51.512;11.332;2022-12-18T07:49:51;24.25;;;9.30;;
64674;SDS011;51090;51.512;11.332;2022-12-18T07:52:16;29.58;;;10.57;;
64674;SDS011;51090;51.512;11.332;2022-12-18T07:54:42;22.98;;;11.95;;
64674;SDS011;51090;51.512;11.332;2022-12-18T07:57:08;22.33;;;10.40;;
64674;SDS011;51090;51.512;11.332;2022-12-18T07:59:34;27.30;;;11.25;;
64674;SDS011;51090;51.512;11.332;2022-12-18T08:02:00;31.90;;;10.68;;
64674;SDS011;51090;51.512;11.332;2022-12-18T08:04:26;25.67;;;10.98;;
64674;SDS011;51090;51.512;11.332;2022-12-18T08:06:52;25.20;;;10.07;;
64674;SDS011;51090;51.512;11.332;2022-12-18T08:09:18;29.48;;;10.65;;
64674;SDS011;51090;51.512;11.332;2022-12-18T08:11:44;29.55;;;11.57;;
64674;SDS011;51090;51.512;11.332;2022-12-18T08:14:09;30.45;;;11.00;;
64674;SDS011;51090;51.512;11.332;2022-12-18T08:16:35;29.42;;;11.95;;
64674;SDS011;51090;51.512;11.332;2022-12-18T08:19:01;28.38;;;11.43;;
64674;SDS011;51090;51.512;11.332;2022-12-18T08:21:29;22.60;;;9.52;;
64674;SDS011;51090;51.512;11.332;2022-12-18T08:23:56;25.42;;;10.85;;
64674;SDS011;51090;51.512;11.332;2022-12-18T08:26:25;33.03;;;12.73;;
64674;SDS011;51090;51.512;11.332;2022-12-18T08:28:54;30.55;;;12.65;;
64674;SDS011;51090;51.512;11.332;2022-12-18T08:31:21;30.52;;;11.15;;
64674;SDS011;51090;51.512;11.332;2022-12-18T08:33:48;28.77;;;11.80;;
64674;SDS011;51090;51.512;11.332;2022-12-18T08:36:16;26.85;;;10.05;;
64674;SDS011;51090;51.512;11.332;2022-12-18T08:38:42;25.52;;;10.82;;
64674;SDS011;51090;51.512;11.332;2022-12-18T08:41:09;23.35;;;10.05;;
64674;SDS011;51090;51.512;11.332;2022-12-18T08:43:39;41.42;;;15.80;;
64674;SDS011;51090;51.512;11.332;2022-12-18T08:46:24;33.22;;;13.35;;
64674;SDS011;51090;51.512;11.332;2022-12-18T08:48:52;29.38;;;12.95;;
64674;SDS011;51090;51.512;11.332;2022-12-18T08:51:20;29.67;;;12.82;;
64674;SDS011;51090;51.512;11.332;2022-12-18T08:53:46;31.50;;;13.73;;
64674;SDS011;51090;51.512;11.332;2022-12-18T08:56:12;29.95;;;13.00;;
64674;SDS011;51090;51.512;11.332;2022-12-18T08:58:40;31.13;;;12.57;;
64674;SDS011;51090;51.512;11.332;2022-12-18T09:01:07;38.13;;;13.43;;
64674;SDS011;51090;51.512;11.332;2022-12-18T09:03:35;35.28;;;14.32;;
64674;SDS011;51090;51.512;11.332;2022-12-18T09:06:01;38.88;;;16.40;;
64674;SDS011;51090;51.512;11.332;2022-12-18T09:08:28;37.33;;;15.95;;
64674;SDS011;51090;51.512;11.332;2022-12-18T09:10:54;40.33;;;17.90;;
64674;SDS011;51090;51.512;11.332;2022-12-18T09:13:20;38.90;;;16.77;;
64674;SDS011;51090;51.512;11.332;2022-12-18T09:15:47;44.03;;;18.30;;
64674;SDS011;51090;51.512;11.332;2022-12-18T09:18:16;39.70;;;19.52;;
64674;SDS011;51090;51.512;11.332;2022-12-18T09:20:43;59.88;;;25.85;;
64674;SDS011;51090;51.512;11.332;2022-12-18T09:23:10;44.08;;;19.92;;
64674;SDS011;51090;51.512;11.332;2022-12-18T09:25:37;41.95;;;19.50;;
64674;SDS011;51090;51.512;11.332;2022-12-18T09:28:05;38.30;;;19.10;;
64674;SDS011;51090;51.512;11.332;2022-12-18T09:30:40;39.72;;;20.48;;
64674;SDS011;51090;51.512;11.332;2022-12-18T09:33:10;41.78;;;18.40;;
64674;SDS011;51090;51.512;11.332;2022-12-18T09:35:36;47.95;;;17.05;;
64674;SDS011;51090;51.512;11.332;2022-12-18T09:38:03;33.50;;;15.25;;
64674;SDS011;51090;51.512;11.332;2022-12-18T09:40:32;21.98;;;12.40;;
64674;SDS011;51090;51.512;11.332;2022-12-18T09:43:04;31.92;;;13.82;;
64674;SDS011;51090;51.512;11.332;2022-12-18T09:45:40;51.92;;;19.52;;
64674;SDS011;51090;51.512;11.332;2022-12-18T09:48:20;46.05;;;17.45;;
64674;SDS011;51090;51.512;11.332;2022-12-18T09:50:53;45.17;;;17.88;;
64674;SDS011;51090;51.512;11.332;2022-12-18T09:53:27;46.45;;;19.48;;
64674;SDS011;51090;51.512;11.332;2022-12-18T09:55:57;49.13;;;20.23;;
64674;SDS011;51090;51.512;11.332;2022-12-18T09:58:29;47.50;;;17.95;;
64674;SDS011;51090;51.512;11.332;2022-12-18T10:01:10;41.63;;;17.80;;
64674;SDS011;51090;51.512;11.332;2022-12-18T10:03:39;40.20;;;16.33;;
64674;SDS011;51090;51.512;11.332;2022-12-18T10:06:13;52.10;;;23.33;;
64674;SDS011;51090;51.512;11.332;2022-12-18T10:14:32;55.38;;;22.77;;
64674;SDS011;51090;51.512;11.332;2022-12-18T10:17:22;51.33;;;23.88;;
64674;SDS011;51090;51.512;11.332;2022-12-18T10:26:01;54.30;;;22.85;;
64674;SDS011;51090;51.512;11.332;2022-12-18T10:28:45;47.13;;;21.07;;
64674;SDS011;51090;51.512;11.332;2022-12-18T10:31:22;47.85;;;21.50;;
64674;SDS011;51090;51.512;11.332;2022-12-18T10:33:49;40.88;;;20.63;;
64674;SDS011;51090;51.512;11.332;2022-12-18T10:36:15;49.38;;;21.67;;
64674;SDS011;51090;51.512;11.332;2022-12-18T10:38:41;47.75;;;20.13;;
64674;SDS011;51090;51.512;11.332;2022-12-18T10:43:47;58.38;;;25.10;;
64674;SDS011;51090;51.512;11.332;2022-12-18T10:46:17;85.53;;;32.05;;
64674;SDS011;51090;51.512;11.332;2022-12-18T10:53:51;56.25;;;23.60;;
64674;SDS011;51090;51.512;11.332;2022-12-18T10:56:29;38.70;;;18.52;;
64674;SDS011;51090;51.512;11.332;2022-12-18T10:59:08;39.42;;;20.38;;
64674;SDS011;51090;51.512;11.332;2022-12-18T11:04:23;44.42;;;19.83;;
64674;SDS011;51090;51.512;11.332;2022-12-18T11:06:57;41.85;;;19.90;;
64674;SDS011;51090;51.512;11.332;2022-12-18T11:09:32;42.38;;;19.75;;
64674;SDS011;51090;51.512;11.332;2022-12-18T11:12:04;42.20;;;18.75;;
64674;SDS011;51090;51.512;11.332;2022-12-18T11:14:43;45.40;;;21.08;;
64674;SDS011;51090;51.512;11.332;2022-12-18T11:17:20;53.92;;;22.38;;
64674;SDS011;51090;51.512;11.332;2022-12-18T11:20:09;68.07;;;24.85;;
64674;SDS011;51090;51.512;11.332;2022-12-18T11:23:04;50.75;;;20.67;;
64674;SDS011;51090;51.512;11.332;2022-12-18T11:25:38;39.67;;;17.52;;
64674;SDS011;51090;51.512;11.332;2022-12-18T11:28:05;40.53;;;17.80;;
64674;SDS011;51090;51.512;11.332;2022-12-18T11:36:53;36.35;;;18.30;;
64674;SDS011;51090;51.512;11.332;2022-12-18T11:42:10;31.95;;;15.20;;
64674;SDS011;51090;51.512;11.332;2022-12-18T11:49:55;36.33;;;16.40;;
64674;SDS011;51090;51.512;11.332;2022-12-18T11:52:26;41.80;;;18.83;;
64674;SDS011;51090;51.512;11.332;2022-12-18T11:55:27;50.22;;;20.77;;
64674;SDS011;51090;51.512;11.332;2022-12-18T12:06:57;44.05;;;20.90;;
64674;SDS011;51090;51.512;11.332;2022-12-18T12:10:12;37.97;;;18.77;;
64674;SDS011;51090;51.512;11.332;2022-12-18T12:15:47;38.47;;;20.45;;
64674;SDS011;51090;51.512;11.332;2022-12-18T12:21:41;49.30;;;23.05;;
64674;SDS011;51090;51.512;11.332;2022-12-18T12:24:20;54.90;;;21.92;;
64674;SDS011;51090;51.512;11.332;2022-12-18T12:27:30;49.58;;;20.92;;
64674;SDS011;51090;51.512;11.332;2022-12-18T12:30:24;45.03;;;20.35;;
64674;SDS011;51090;51.512;11.332;2022-12-18T12:38:54;44.85;;;23.13;;
64674;SDS011;51090;51.512;11.332;2022-12-18T12:41:25;43.72;;;23.15;;
64674;SDS011;51090;51.512;11.332;2022-12-18T12:44:19;50.05;;;22.73;;
64674;SDS011;51090;51.512;11.332;2022-12-18T12:46:55;50.72;;;22.85;;
64674;SDS011;51090;51.512;11.332;2022-12-18T12:49:26;50.05;;;22.45;;
64674;SDS011;51090;51.512;11.332;2022-12-18T12:54:37;40.95;;;19.70;;
64674;SDS011;51090;51.512;11.332;2022-12-18T13:03:09;44.83;;;20.88;;
64674;SDS011;51090;51.512;11.332;2022-12-18T13:05:57;40.10;;;17.95;;
64674;SDS011;51090;51.512;11.332;2022-12-18T13:08:30;36.88;;;17.58;;
64674;SDS011;51090;51.512;11.332;2022-12-18T13:11:28;34.35;;;15.57;;
64674;SDS011;51090;51.512;11.332;2022-12-18T13:14:26;29.75;;;13.95;;
64674;SDS011;51090;51.512;11.332;2022-12-18T13:19:48;24.67;;;12.23;;
64674;SDS011;51090;51.512;11.332;2022-12-18T13:22:31;30.20;;;13.57;;
64674;SDS011;51090;51.512;11.332;2022-12-18T13:24:58;26.92;;;12.88;;
64674;SDS011;51090;51.512;11.332;2022-12-18T13:33:30;28.30;;;12.35;;
64674;SDS011;51090;51.512;11.332;2022-12-18T13:38:47;28.63;;;13.23;;
64674;SDS011;51090;51.512;11.332;2022-12-18T13:41:39;30.52;;;13.18;;
64674;SDS011;51090;51.512;11.332;2022-12-18T13:47:05;27.25;;;12.68;;
64674;SDS011;51090;51.512;11.332;2022-12-18T13:49:58;34.33;;;14.43;;
64674;SDS011;51090;51.512;11.332;2022-12-18T13:52:26;31.98;;;13.38;;
64674;SDS011;51090;51.512;11.332;2022-12-18T13:54:58;26.10;;;12.90;;
64674;SDS011;51090;51.512;11.332;2022-12-18T13:57:44;27.70;;;12.55;;
64674;SDS011;51090;51.512;11.332;2022-12-18T14:02:54;29.88;;;13.82;;
64674;SDS011;51090;51.512;11.332;2022-12-18T14:05:22;32.58;;;14.30;;
64674;SDS011;51090;51.512;11.332;2022-12-18T14:07:59;31.30;;;13.73;;
64674;SDS011;51090;51.512;11.332;2022-12-18T14:10:40;29.42;;;13.60;;
64674;SDS011;51090;51.512;11.332;2022-12-18T14:13:09;29.40;;;13.93;;
64674;SDS011;51090;51.512;11.332;2022-12-18T14:15:41;40.22;;;18.25;;
64674;SDS011;51090;51.512;11.332;2022-12-18T14:18:20;39.35;;;18.92;;
64674;SDS011;51090;51.512;11.332;2022-12-18T14:20:51;48.85;;;22.08;;
64674;SDS011;51090;51.512;11.332;2022-12-18T14:23:27;33.30;;;15.10;;
64674;SDS011;51090;51.512;11.332;2022-12-18T14:28:59;33.30;;;13.90;;
64674;SDS011;51090;51.512;11.332;2022-12-18T14:32:12;29.77;;;14.25;;
64674;SDS011;51090;51.512;11.332;2022-12-18T14:34:46;36.50;;;16.65;;
64674;SDS011;51090;51.512;11.332;2022-12-18T14:37:16;31.05;;;14.52;;
64674;SDS011;51090;51.512;11.332;2022-12-18T14:39:57;30.13;;;14.63;;
64674;SDS011;51090;51.512;11.332;2022-12-18T14:42:25;30.35;;;14.05;;
64674;SDS011;51090;51.512;11.332;2022-12-18T14:48:05;26.30;;;11.43;;
64674;SDS011;51090;51.512;11.332;2022-12-18T14:51:41;27.27;;;13.55;;
64674;SDS011;51090;51.512;11.332;2022-12-18T14:53:55;23.83;;;12.93;;
64674;SDS011;51090;51.512;11.332;2022-12-18T14:56:24;31.35;;;12.63;;
64674;SDS011;51090;51.512;11.332;2022-12-18T14:59:03;23.95;;;11.82;;
64674;SDS011;51090;51.512;11.332;2022-12-18T15:04:43;29.25;;;12.32;;
64674;SDS011;51090;51.512;11.332;2022-12-18T15:07:20;26.02;;;11.38;;
64674;SDS011;51090;51.512;11.332;2022-12-18T15:10:02;32.03;;;12.10;;
64674;SDS011;51090;51.512;11.332;2022-12-18T15:18:05;25.85;;;13.68;;
64674;SDS011;51090;51.512;11.332;2022-12-18T15:20:55;28.00;;;13.02;;
64674;SDS011;51090;51.512;11.332;2022-12-18T15:26:16;29.50;;;13.40;;
64674;SDS011;51090;51.512;11.332;2022-12-18T15:28:52;40.75;;;15.50;;
64674;SDS011;51090;51.512;11.332;2022-12-18T15:31:22;28.55;;;13.85;;
64674;SDS011;51090;51.512;11.332;2022-12-18T15:36:21;31.25;;;13.93;;
64674;SDS011;51090;51.512;11.332;2022-12-18T15:38:52;32.35;;;14.43;;
64674;SDS011;51090;51.512;11.332;2022-12-18T15:41:20;32.75;;;15.38;;
64674;SDS011;51090;51.512;11.332;2022-12-18T15:43:47;36.35;;;15.48;;
64674;SDS011;51090;51.512;11.332;2022-12-18T15:46:16;32.88;;;13.98;;
64674;SDS011;51090;51.512;11.332;2022-12-18T15:48:54;32.60;;;14.48;;
64674;SDS011;51090;51.512;11.332;2022-12-18T15:51:31;31.27;;;14.50;;
64674;SDS011;51090;51.512;11.332;2022-12-18T15:54:02;36.85;;;14.27;;
64674;SDS011;51090;51.512;11.332;2022-12-18T15:56:33;26.20;;;13.30;;
64674;SDS011;51090;51.512;11.332;2022-12-18T15:59:19;30.90;;;12.57;;
64674;SDS011;51090;51.512;11.332;2022-12-18T16:01:46;28.05;;;13.20;;
64674;SDS011;51090;51.512;11.332;2022-12-18T16:04:16;28.60;;;12.75;;
64674;SDS011;51090;51.512;11.332;2022-12-18T16:06:47;29.10;;;11.77;;
64674;SDS011;51090;51.512;11.332;2022-12-18T16:09:13;29.08;;;11.90;;
64674;SDS011;51090;51.512;11.332;2022-12-18T16:11:40;30.17;;;12.85;;
64674;SDS011;51090;51.512;11.332;2022-12-18T16:16:44;29.60;;;12.35;;
64674;SDS011;51090;51.512;11.332;2022-12-18T16:19:12;26.25;;;10.93;;
64674;SDS011;51090;51.512;11.332;2022-12-18T16:21:38;26.58;;;11.90;;
64674;SDS011;51090;51.512;11.332;2022-12-18T16:24:04;29.77;;;13.27;;
64674;SDS011;51090;51.512;11.332;2022-12-18T16:26:34;32.33;;;13.77;;
64674;SDS011;51090;51.512;11.332;2022-12-18T16:28:59;33.65;;;14.50;;
64674;SDS011;51090;51.512;11.332;2022-12-18T16:31:25;30.55;;;14.18;;
64674;SDS011;51090;51.512;11.332;2022-12-18T16:34:09;28.77;;;13.27;;
64674;SDS011;51090;51.512;11.332;2022-12-18T16:36:57;29.75;;;13.43;;
64674;SDS011;51090;51.512;11.332;2022-12-18T16:39:26;28.33;;;12.93;;
64674;SDS011;51090;51.512;11.332;2022-12-18T16:41:52;29.30;;;13.50;;
64674;SDS011;51090;51.512;11.332;2022-12-18T16:44:18;35.35;;;15.63;;
64674;SDS011;51090;51.512;11.332;2022-12-18T16:46:44;28.83;;;14.82;;
64674;SDS011;51090;51.512;11.332;2022-12-18T16:49:11;30.30;;;14.95;;
64674;SDS011;51090;51.512;11.332;2022-12-18T16:51:38;34.72;;;15.27;;
64674;SDS011;51090;51.512;11.332;2022-12-18T16:54:04;28.30;;;13.52;;
64674;SDS011;51090;51.512;11.332;2022-12-18T16:56:30;34.35;;;15.48;;
64674;SDS011;51090;51.512;11.332;2022-12-18T16:58:56;33.55;;;16.08;;
64674;SDS011;51090;51.512;11.332;2022-12-18T17:01:25;29.45;;;14.15;;